Weather
Algoa Flight CentreBookingsEnt 1064(rendered 2016-12-11 02:10:52) Member: Guest [54.204.108.121- private]
Go back one day  Today  Go forward one day
00h00-24h00  00h00-12h00  12h00-24h00  06h00-22h00  08h00-18h00   Bookingsheet Key 

Sunrise: 04:59B

Full view Bookings for Sunday, 11th December 2016

101: Problem: Friction locks cause throttle levers to stick. Solution: That's what they're there for!

Sunset: 19:22B

 06h0007h0008h0009h0010h0011h0012h0013h0014h0015h0016h0017h0018h0019h0020h0021h00

ZU-WCG

Airplane company NTCA

Booked

ZS-KEO

Cessna C152 Single Engine

ZS-MXS

Cessna C152 Single Engine

Booked

Booked

ZS-PKO

Cessna C152 Single Engine

ZS-PKS

Cessna C152 Single Engine

ZS-KSF

Cessna C172 Single Engine 4 seater

ZS-MBP

Cessna C172 Single Engine 4 seater

Booked

ZS-KND

Cessna C72R Complex Single Engine

Elite S812 SE

Elite Simulators FNPTII

Elite S812 ME

Elite Simulators FNPT II

ZS-IHX

Beechcraft Multi Engine Piston

FAPE METAR 102200Z 08006KT 9999 BKN026 17/15 Q1021 NOSIG
FAGG METAR 102100Z AUTO 10008KT 9999 BKN049/// 17/13 Q1021

Clayton Staples

CEO / Flight Instructor Gr II

Booked

Booked

Booked

Mike Thompson

Chief Flight Instructor

Russell Abrey

Flight Instructor Gr II

Russell Phillips

Flight Instructor Gr II

Dave Anderson

Flight Instructor Gr II

Eric van der Merwe

Flight Instructor GrII

Abraham Muhumuza

Ground School

Booked

Stephan Smit

MADIBA SIM STUDENTS ONLY

Sophia Sudak

TEFL ENGLISH TEACHER

George Stewart

DFE

Tony van Vliet

DFE

FAPE TAF 101600Z 1018/1118 10010KT 9999 FEW025 BKN035    BECMG 1110/1112 09020G30KT    TX22/1112ZTN16/1103Z
FAGG TAF 101600Z 1012/1112 16008KT 9999 SCT025 BKN035    PROB40 TEMPO 1021/1104 BKN008    PROB30 TEMPO 1100/1103 1000 BR BKN003    FM110600 14013KT 9999 SCT035    TX25/1112ZTN15/1104Z

Exam Station 1

CAA Exams

Exam Station 2

CAA Exams

Exam Station 3

CAA Exams

Upstairs Lecture

Upstairs

Down Lecture Roo

Downstairs

Logger

GPS Logger

Clubhouse

Functions

Braai Area

Outdoor Braai

Gremlins Grotto

Pub

 06h0007h0008h0009h0010h0011h0012h0013h0014h0015h0016h0017h0018h0019h0020h0021h00

index.php last modified on Wed 13 Jun 2012 7:48 PM